< Typhoon 199410 1994 Season Typhoon 199412 >
Typhoon 199411 (BRENDAN)
General InformationTrack Information on Google MapsDetailed Wind InformationList of All Images || Disaster Info.ResourceGoogle EarthGE AnimationAtom FeedGeoJSON
Detalied Best Track (Time Zone = UTC)
Year Month Day Hour Lat. Long. Pressure (hPa) Wind (kt) Class Image Chart
1994 7 25 12 14.3 129.5 1002 0 2 Image Chart
1994 7 25 18 14.5 129.7 1000 0 2 Image Chart
1994 7 26 00 14.8 129.8 1000 0 2 Image Chart
1994 7 26 06 15.1 129.5 998 0 2 Image Chart
1994 7 26 12 15.4 128.9 998 0 2 Image Chart
1994 7 26 18 15.7 128.2 998 0 2 Image Chart
1994 7 27 00 16.0 127.4 998 0 2 Image Chart
1994 7 27 06 16.2 126.6 998 0 2 Image Chart
1994 7 27 12 16.5 126.0 998 0 2 Image Chart
1994 7 27 18 16.8 125.4 998 0 2 Image Chart
1994 7 28 00 17.1 125.4 998 0 2 Image Chart
1994 7 28 06 17.4 125.9 998 0 2 Image Chart
1994 7 28 12 17.7 126.5 998 0 2 Image Chart
1994 7 28 18 18.1 127.0 996 0 2 Image Chart
1994 7 29 00 18.7 127.6 996 0 2 Image Chart
1994 7 29 06 19.6 128.1 994 35 3 Image Chart
1994 7 29 12 20.6 128.5 994 35 3 Image Chart
1994 7 29 18 21.5 128.8 994 35 3 Image Chart
1994 7 30 00 22.7 129.0 994 35 3 Image Chart
1994 7 30 06 23.9 128.8 994 35 3 Image Chart
1994 7 30 12 25.0 128.2 994 35 3 Image Chart
1994 7 30 18 26.4 127.3 996 35 3 Image Chart
1994 7 31 00 27.8 126.7 996 35 3 Image Chart
1994 7 31 06 29.7 126.1 994 40 3 Image Chart
1994 7 31 12 31.8 125.7 992 45 3 Image Chart
1994 7 31 18 33.5 125.6 992 45 3 Image Chart
1994 8 1 00 35.2 126.1 994 40 3 Image Chart
1994 8 1 06 36.7 127.3 994 35 3 Image Chart
1994 8 1 12 38.2 129.8 996 35 3 Image Chart
1994 8 1 18 39.1 131.8 996 35 3 Image Chart
1994 8 2 00 40.0 134.4 996 35 3 Image Chart
1994 8 2 06 40.8 137.0 994 40 3 Image Chart
1994 8 2 09 41.0 138.3 994 40 3 Image Chart
1994 8 2 12 41.0 139.7 994 40 3 Image Chart
1994 8 2 13 41.0 140.2 996 35 3 Image Chart
1994 8 2 15 40.9 141.2 996 35 3 Image Chart
1994 8 2 18 40.9 142.5 998 0 2 Image Chart
1994 8 3 00 41.0 144.2 1000 0 2 Image Chart
1994 8 3 06 41.0 145.5 1002 0 2 Image Chart
1994 8 3 12 41.0 147.0 1004 0 2 Image Chart
Japan Meteorological Agency Best Track Data | Correction Date : 1995-01-30
< Typhoon 199410 1994 Season Typhoon 199412 >

Help